createdAt,value
2023-03-13T00:02:20.168Z,78.19
2023-03-13T00:04:49.537Z,78.87
2023-03-13T00:07:17.543Z,79.53
2023-03-13T00:09:45.471Z,79.35
2023-03-13T00:12:13.439Z,79.63
2023-03-13T00:14:41.405Z,80.39
2023-03-13T00:17:09.354Z,80.92
2023-03-13T00:19:37.516Z,81.34
2023-03-13T00:22:06.856Z,81.12
2023-03-13T00:24:35.165Z,83.12
2023-03-13T00:27:05.133Z,84.20
2023-03-13T00:29:33.913Z,84.74
2023-03-13T00:32:02.117Z,84.80
2023-03-13T00:34:30.156Z,84.46
2023-03-13T00:36:58.091Z,85.63
2023-03-13T00:39:27.477Z,85.63
2023-03-13T00:41:55.692Z,85.77
2023-03-13T00:44:23.660Z,86.46
2023-03-13T00:46:51.599Z,86.83
2023-03-13T00:49:19.567Z,87.16
2023-03-13T00:51:47.528Z,87.79
2023-03-13T00:54:15.438Z,89.02
2023-03-13T00:56:44.850Z,89.92
2023-03-13T00:59:12.789Z,91.35
2023-03-13T01:01:40.697Z,92.16
2023-03-13T01:04:10.067Z,92.60
2023-03-13T01:06:38.669Z,93.98
2023-03-13T01:09:06.822Z,93.87
2023-03-13T01:11:36.067Z,95.54
2023-03-13T01:14:06.547Z,95.86
2023-03-13T01:16:35.262Z,97.26
2023-03-13T01:19:04.101Z,97.95
2023-03-13T01:21:32.090Z,100.00
2023-03-13T01:24:00.113Z,99.68
2023-03-13T01:26:28.255Z,100.00
2023-03-13T01:28:56.295Z,100.00
2023-03-13T01:31:26.817Z,100.00
2023-03-13T01:33:55.912Z,100.00
2023-03-13T01:36:23.949Z,100.00
2023-03-13T01:38:52.328Z,100.00
2023-03-13T01:41:20.667Z,100.00
2023-03-13T01:43:48.625Z,100.00
2023-03-13T01:46:18.010Z,100.00
2023-03-13T01:48:50.016Z,100.00
2023-03-13T01:51:20.949Z,100.00
2023-03-13T01:53:50.407Z,100.00
2023-03-13T01:56:20.575Z,100.00
2023-03-13T01:58:49.590Z,100.00
2023-03-13T02:01:17.688Z,100.00
2023-03-13T02:03:45.685Z,100.00
2023-03-13T02:06:14.986Z,100.00
2023-03-13T02:08:44.178Z,100.00
2023-03-13T02:11:17.579Z,100.00
2023-03-13T02:13:45.529Z,100.00
2023-03-13T02:16:13.567Z,100.00
2023-03-13T02:18:41.540Z,100.00
2023-03-13T02:21:12.511Z,100.00
2023-03-13T02:23:44.089Z,100.00
2023-03-13T02:26:13.380Z,100.00
2023-03-13T02:28:41.278Z,100.00
2023-03-13T02:31:09.316Z,100.00
2023-03-13T02:33:39.005Z,100.00
2023-03-13T02:36:07.859Z,100.00
2023-03-13T02:38:38.215Z,100.00
2023-03-13T02:41:06.239Z,100.00
2023-03-13T02:43:36.301Z,100.00
2023-03-13T02:46:09.617Z,100.00
2023-03-13T02:48:38.788Z,100.00
2023-03-13T02:51:09.785Z,100.00
2023-03-13T02:53:37.736Z,100.00
2023-03-13T02:56:07.336Z,100.00
2023-03-13T02:58:49.683Z,100.00
2023-03-13T03:01:18.270Z,100.00
2023-03-13T03:03:46.425Z,100.00
2023-03-13T03:06:14.429Z,100.00
2023-03-13T03:08:43.943Z,100.00
2023-03-13T03:11:11.955Z,100.00
2023-03-13T03:13:41.244Z,100.00
2023-03-13T03:16:09.888Z,100.00
2023-03-13T03:18:37.860Z,100.00
2023-03-13T03:21:06.545Z,100.00
2023-03-13T03:23:34.911Z,100.00
2023-03-13T03:26:02.916Z,100.00
2023-03-13T03:28:30.858Z,100.00
2023-03-13T03:31:04.902Z,100.00
2023-03-13T03:33:32.975Z,100.00
2023-03-13T03:36:01.601Z,100.00
2023-03-13T03:38:29.595Z,100.00
2023-03-13T03:40:57.542Z,100.00
2023-03-13T03:43:25.555Z,100.00
2023-03-13T03:45:53.533Z,100.00
2023-03-13T03:48:22.976Z,100.00
2023-03-13T03:50:50.956Z,100.00
2023-03-13T03:53:18.911Z,100.00
2023-03-13T03:55:46.863Z,100.00
2023-03-13T03:58:14.799Z,100.00
2023-03-13T04:00:44.817Z,100.00
2023-03-13T04:03:12.931Z,100.00
2023-03-13T04:05:42.370Z,100.00
2023-03-13T04:08:10.425Z,100.00
2023-03-13T04:10:38.688Z,100.00
2023-03-13T04:13:06.668Z,100.00
2023-03-13T04:15:34.589Z,100.00
2023-03-13T04:18:02.518Z,100.00
2023-03-13T04:20:30.461Z,100.00
2023-03-13T04:22:59.778Z,100.00
2023-03-13T04:25:27.797Z,100.00
2023-03-13T04:27:55.719Z,100.00
2023-03-13T04:30:23.748Z,100.00
2023-03-13T04:32:52.136Z,100.00
2023-03-13T04:35:20.270Z,100.00
2023-03-13T04:37:48.344Z,100.00
2023-03-13T04:40:17.830Z,100.00
2023-03-13T04:42:46.998Z,100.00
2023-03-13T04:45:14.938Z,100.00
2023-03-13T04:47:42.949Z,100.00
2023-03-13T04:50:11.896Z,100.00
2023-03-13T04:52:39.934Z,100.00
2023-03-13T04:55:08.931Z,100.00
2023-03-13T04:57:38.251Z,100.00
2023-03-13T05:00:08.235Z,100.00
2023-03-13T05:02:36.213Z,100.00
2023-03-13T05:05:04.336Z,100.00
2023-03-13T05:07:32.321Z,100.00
2023-03-13T05:10:00.229Z,100.00
2023-03-13T05:12:28.180Z,100.00
2023-03-13T05:14:57.477Z,84.87
2023-03-13T05:17:25.373Z,73.06
2023-03-13T05:19:53.277Z,65.70
2023-03-13T05:22:21.209Z,59.62
2023-03-13T05:24:49.161Z,57.00
2023-03-13T05:27:17.077Z,56.24
2023-03-13T05:29:45.021Z,55.37
2023-03-13T05:32:14.343Z,55.31
2023-03-13T05:34:42.268Z,56.54
2023-03-13T05:37:10.206Z,58.34
2023-03-13T05:39:38.159Z,58.63
2023-03-13T05:42:06.277Z,58.28
2023-03-13T05:44:34.232Z,57.36
2023-03-13T05:47:04.062Z,57.07
2023-03-13T05:49:33.510Z,58.72
2023-03-13T05:52:01.501Z,58.44
2023-03-13T05:54:29.478Z,56.79
2023-03-13T05:56:57.419Z,57.91
2023-03-13T05:59:25.390Z,55.60
2023-03-13T06:01:53.318Z,55.84
2023-03-13T06:04:21.384Z,54.50
2023-03-13T06:06:50.766Z,54.33
2023-03-13T06:09:18.694Z,52.08
2023-03-13T06:11:46.675Z,50.00
2023-03-13T06:14:14.580Z,49.46
2023-03-13T06:16:42.527Z,50.28
2023-03-13T06:19:10.485Z,49.98
2023-03-13T06:21:38.412Z,51.15
2023-03-13T06:24:08.230Z,52.66
2023-03-13T06:26:36.171Z,52.67
2023-03-13T06:29:04.117Z,53.54
2023-03-13T06:31:32.166Z,55.13
2023-03-13T06:34:00.225Z,56.12
2023-03-13T06:36:28.348Z,56.44
2023-03-13T06:38:56.343Z,54.90
2023-03-13T06:41:25.707Z,52.59
2023-03-13T06:43:53.684Z,50.53
2023-03-13T06:46:22.718Z,48.76
2023-03-13T06:48:50.737Z,45.62
2023-03-13T06:51:19.719Z,44.41
2023-03-13T06:53:47.682Z,44.17
2023-03-13T06:56:15.610Z,45.38
2023-03-13T06:58:48.443Z,45.99
2023-03-13T07:01:16.848Z,46.78
2023-03-13T07:03:44.828Z,45.54
2023-03-13T07:06:12.900Z,47.34
2023-03-13T07:08:40.864Z,47.73
2023-03-13T07:11:09.888Z,47.82
2023-03-13T07:13:37.844Z,47.76
2023-03-13T07:16:08.525Z,48.54
2023-03-13T07:18:36.626Z,47.52
2023-03-13T07:21:06.150Z,47.20
2023-03-13T07:23:34.645Z,46.88
2023-03-13T07:26:03.307Z,47.77
2023-03-13T07:28:31.863Z,48.29
2023-03-13T07:31:05.624Z,48.89
2023-03-13T07:33:34.982Z,48.69
2023-03-13T07:36:02.966Z,48.18
2023-03-13T07:38:30.954Z,49.60
2023-03-13T07:40:58.978Z,49.54
2023-03-13T07:43:27.024Z,48.10
2023-03-13T07:45:55.952Z,48.79
2023-03-13T07:48:25.811Z,49.99
2023-03-13T07:50:55.548Z,50.96
2023-03-13T07:53:23.576Z,49.70
2023-03-13T07:55:55.826Z,49.87
2023-03-13T07:58:23.964Z,50.30
2023-03-13T08:00:51.945Z,51.48
2023-03-13T08:03:20.161Z,52.96
2023-03-13T08:05:48.153Z,52.45
2023-03-13T08:08:17.454Z,52.65
2023-03-13T08:10:45.462Z,51.81
2023-03-13T08:13:13.417Z,51.49
2023-03-13T08:15:41.440Z,50.86
2023-03-13T08:18:09.376Z,50.64
2023-03-13T08:20:37.342Z,52.56
2023-03-13T08:23:05.292Z,51.21
2023-03-13T08:25:34.629Z,50.59
2023-03-13T08:28:02.684Z,50.22
2023-03-13T08:30:30.703Z,50.23
2023-03-13T08:32:58.684Z,50.43
2023-03-13T08:35:26.752Z,48.77
2023-03-13T08:37:54.716Z,47.72
2023-03-13T08:40:22.664Z,48.01
2023-03-13T08:42:51.949Z,47.41
2023-03-13T08:45:19.855Z,46.80
2023-03-13T08:47:47.779Z,46.34
2023-03-13T08:50:15.854Z,45.20
2023-03-13T08:52:45.415Z,45.80
2023-03-13T08:55:14.529Z,45.43
2023-03-13T08:57:42.459Z,46.31
2023-03-13T09:00:14.950Z,47.50
2023-03-13T09:02:42.946Z,46.68
2023-03-13T09:05:11.214Z,47.49
2023-03-13T09:07:40.024Z,47.11
2023-03-13T09:10:09.178Z,47.65
2023-03-13T09:12:37.125Z,45.97
2023-03-13T09:15:05.558Z,45.04
2023-03-13T09:17:34.921Z,45.78
2023-03-13T09:20:03.093Z,43.59
2023-03-13T09:22:31.068Z,43.47
2023-03-13T09:24:59.032Z,41.61
2023-03-13T09:27:28.216Z,41.35
2023-03-13T09:29:56.180Z,40.68
2023-03-13T09:32:24.287Z,40.06
2023-03-13T09:34:53.625Z,40.62
2023-03-13T09:37:21.602Z,39.82
2023-03-13T09:39:49.783Z,39.39
2023-03-13T09:42:18.402Z,38.65
2023-03-13T09:44:47.555Z,39.18
2023-03-13T09:47:19.641Z,37.74
2023-03-13T09:49:48.644Z,37.74
2023-03-13T09:52:19.222Z,37.86
2023-03-13T09:54:51.937Z,38.17
2023-03-13T09:57:24.460Z,36.89
2023-03-13T09:59:54.567Z,36.29
2023-03-13T10:02:29.538Z,35.11
2023-03-13T10:05:03.907Z,34.52
2023-03-13T10:07:33.224Z,35.04
2023-03-13T10:10:01.969Z,35.13
2023-03-13T10:12:30.400Z,36.65
2023-03-13T10:15:04.755Z,34.40
2023-03-13T10:17:33.661Z,33.92
2023-03-13T10:20:08.466Z,30.79
2023-03-13T10:22:38.368Z,31.75
2023-03-13T10:25:08.951Z,31.14
2023-03-13T10:27:44.788Z,31.01
2023-03-13T10:30:20.598Z,31.03
2023-03-13T10:32:48.574Z,32.00
2023-03-13T10:35:22.622Z,32.49
2023-03-13T10:37:51.908Z,32.75
2023-03-13T10:40:23.953Z,32.68
2023-03-13T10:42:52.562Z,32.76
2023-03-13T10:45:22.694Z,32.10
2023-03-13T10:47:55.767Z,31.14
2023-03-13T10:50:25.195Z,30.93
2023-03-13T10:52:55.133Z,30.82
2023-03-13T10:55:23.712Z,32.20
2023-03-13T10:57:58.628Z,30.74
2023-03-13T11:00:31.554Z,31.25
2023-03-13T11:02:59.630Z,31.52
2023-03-13T11:05:40.234Z,31.00
2023-03-13T11:08:21.439Z,31.59
2023-03-13T11:10:56.917Z,29.62
2023-03-13T11:13:37.268Z,29.58
2023-03-13T11:16:20.158Z,28.80
2023-03-13T11:19:02.828Z,28.03
2023-03-13T11:21:34.769Z,27.13
2023-03-13T11:24:07.631Z,25.79
2023-03-13T11:26:36.940Z,26.66
2023-03-13T11:29:07.347Z,26.08
2023-03-13T11:31:37.099Z,26.04
2023-03-13T11:34:06.919Z,25.58
2023-03-13T11:36:37.393Z,25.56
2023-03-13T11:39:18.682Z,25.04
2023-03-13T11:41:54.503Z,25.22
2023-03-13T11:44:32.262Z,25.05
2023-03-13T11:47:15.773Z,24.54
2023-03-13T11:49:50.382Z,23.83
2023-03-13T11:52:24.143Z,24.21
2023-03-13T11:55:13.860Z,24.25
2023-03-13T11:57:43.910Z,22.61
2023-03-13T12:00:24.222Z,21.37
2023-03-13T12:02:54.254Z,21.29
2023-03-13T12:05:22.391Z,21.24
2023-03-13T12:07:53.919Z,20.86
2023-03-13T12:10:27.849Z,20.85
2023-03-13T12:12:59.937Z,19.93
2023-03-13T12:15:29.343Z,19.79
2023-03-13T12:17:59.475Z,20.43
2023-03-13T12:20:28.488Z,20.15
2023-03-13T12:22:59.563Z,20.73
2023-03-13T12:25:30.241Z,19.09
2023-03-13T12:27:59.973Z,19.63
2023-03-13T12:30:32.435Z,19.94
2023-03-13T12:33:03.661Z,20.65
2023-03-13T12:35:33.451Z,21.85
2023-03-13T12:38:04.042Z,23.39
2023-03-13T12:40:35.119Z,24.96
2023-03-13T12:43:05.792Z,25.68
2023-03-13T12:45:34.062Z,26.56
2023-03-13T12:48:21.692Z,27.97
2023-03-13T12:51:00.506Z,29.02
2023-03-13T12:53:50.696Z,29.97
2023-03-13T12:56:26.205Z,31.73
2023-03-13T12:58:54.593Z,30.22
2023-03-13T13:01:28.994Z,31.01
2023-03-13T13:03:57.881Z,30.50
2023-03-13T13:06:26.027Z,31.56
2023-03-13T13:09:08.790Z,31.53
2023-03-13T13:11:50.191Z,31.46
2023-03-13T13:14:57.712Z,32.53
2023-03-13T13:17:51.782Z,31.36
2023-03-13T13:20:40.068Z,31.83
2023-03-13T13:23:26.761Z,32.40
2023-03-13T13:25:56.066Z,31.81
2023-03-13T13:28:35.340Z,32.98
2023-03-13T13:31:03.584Z,31.46
2023-03-13T13:33:38.638Z,31.40
2023-03-13T13:36:31.512Z,32.00
2023-03-13T13:38:59.539Z,31.38
2023-03-13T13:41:37.928Z,32.00
2023-03-13T13:44:29.625Z,33.39
2023-03-13T13:46:58.913Z,31.86
2023-03-13T13:49:33.897Z,32.53
2023-03-13T13:52:36.188Z,31.65
2023-03-13T13:55:04.183Z,31.03
2023-03-13T13:57:32.979Z,32.09
2023-03-13T14:00:19.739Z,31.49
2023-03-13T14:02:50.158Z,31.27
2023-03-13T14:05:19.860Z,31.32
2023-03-13T14:07:56.984Z,31.17
2023-03-13T14:10:49.747Z,31.45
2023-03-13T14:13:19.218Z,31.45
2023-03-13T14:15:48.940Z,31.39
2023-03-13T14:18:21.726Z,30.48
2023-03-13T14:20:59.924Z,30.89
2023-03-13T14:23:33.220Z,30.69
2023-03-13T14:26:09.328Z,30.59
2023-03-13T14:28:37.251Z,30.76
2023-03-13T14:31:06.666Z,31.21
2023-03-13T14:33:34.620Z,31.49
2023-03-13T14:36:03.568Z,30.57
2023-03-13T14:38:32.934Z,30.94
2023-03-13T14:41:00.968Z,31.00
2023-03-13T14:43:32.396Z,30.10
2023-03-13T14:46:00.626Z,30.49
2023-03-13T14:48:31.976Z,29.72
2023-03-13T14:51:14.694Z,29.34
2023-03-13T14:53:43.270Z,30.94
2023-03-13T14:56:12.826Z,30.65
2023-03-13T14:58:40.782Z,30.38
2023-03-13T15:01:26.133Z,30.29
2023-03-13T15:03:55.693Z,29.80
2023-03-13T15:06:24.176Z,29.74
2023-03-13T15:09:14.905Z,30.21
2023-03-13T15:11:43.265Z,29.95
2023-03-13T15:14:38.837Z,29.78
2023-03-13T15:17:13.148Z,30.65
2023-03-13T15:19:42.522Z,31.09
2023-03-13T15:22:14.902Z,32.18
2023-03-13T15:24:45.262Z,31.41
2023-03-13T15:27:17.436Z,30.53
2023-03-13T15:29:45.580Z,31.54
2023-03-13T15:32:16.284Z,30.36
2023-03-13T15:34:45.603Z,30.12
2023-03-13T15:37:14.053Z,31.44
2023-03-13T15:39:42.033Z,31.83
2023-03-13T15:42:10.018Z,30.98
2023-03-13T15:44:38.034Z,30.99
2023-03-13T15:47:06.338Z,31.04
2023-03-13T15:49:34.326Z,30.85
2023-03-13T15:52:03.650Z,31.31
2023-03-13T15:54:31.629Z,31.28
2023-03-13T15:56:59.608Z,31.29
2023-03-13T15:59:27.614Z,31.78
2023-03-13T16:01:55.616Z,32.46
2023-03-13T16:04:23.605Z,32.42
2023-03-13T16:06:51.577Z,32.78
2023-03-13T16:09:20.948Z,33.69
2023-03-13T16:11:49.424Z,33.72
2023-03-13T16:14:17.350Z,34.06
2023-03-13T16:16:45.361Z,34.10
2023-03-13T16:19:13.353Z,34.23
2023-03-13T16:21:45.296Z,34.59
2023-03-13T16:24:13.274Z,35.56
2023-03-13T16:26:42.641Z,36.70
2023-03-13T16:29:11.767Z,37.71
2023-03-13T16:31:39.815Z,39.36
2023-03-13T16:34:08.173Z,39.30
2023-03-13T16:36:36.414Z,40.21
2023-03-13T16:39:05.601Z,40.91
2023-03-13T16:41:33.852Z,42.21
2023-03-13T16:44:03.718Z,43.70
2023-03-13T16:46:33.796Z,43.42
2023-03-13T16:49:01.796Z,43.78
2023-03-13T16:51:29.846Z,44.01
2023-03-13T16:53:59.746Z,44.34
2023-03-13T16:56:29.776Z,44.39
2023-03-13T16:58:58.371Z,45.26
2023-03-13T17:01:29.143Z,45.61
2023-03-13T17:03:57.279Z,46.22
2023-03-13T17:06:26.501Z,47.05
2023-03-13T17:08:54.547Z,48.22
2023-03-13T17:11:22.824Z,48.75
2023-03-13T17:13:51.270Z,48.77
2023-03-13T17:16:20.574Z,49.66
2023-03-13T17:18:51.642Z,49.58
2023-03-13T17:21:20.395Z,51.37
2023-03-13T17:23:48.316Z,51.14
2023-03-13T17:26:17.866Z,51.41
2023-03-13T17:28:46.072Z,52.11
2023-03-13T17:31:14.156Z,52.46
2023-03-13T17:33:42.187Z,53.81
2023-03-13T17:36:15.852Z,54.41
2023-03-13T17:38:43.838Z,55.81
2023-03-13T17:41:13.090Z,56.69
2023-03-13T17:43:41.093Z,57.48
2023-03-13T17:46:16.960Z,58.04
2023-03-13T17:48:44.936Z,60.67
2023-03-13T17:51:16.541Z,60.37
2023-03-13T17:53:44.512Z,62.11
2023-03-13T17:56:16.768Z,63.44
2023-03-13T17:58:44.934Z,63.26
2023-03-13T18:01:14.531Z,65.06
2023-03-13T18:03:42.910Z,67.28
2023-03-13T18:06:19.067Z,68.13
2023-03-13T18:08:47.217Z,69.14
2023-03-13T18:11:15.491Z,71.15
2023-03-13T18:13:43.396Z,70.47
2023-03-13T18:16:18.527Z,72.46
2023-03-13T18:18:46.526Z,74.07
2023-03-13T18:21:14.541Z,72.22
2023-03-13T18:23:43.883Z,72.86
2023-03-13T18:26:20.773Z,73.37
2023-03-13T18:28:48.701Z,74.08
2023-03-13T18:31:16.688Z,73.54
2023-03-13T18:33:44.624Z,73.82
2023-03-13T18:36:19.440Z,73.60
2023-03-13T18:38:49.188Z,73.05
2023-03-13T18:41:17.386Z,71.82
2023-03-13T18:43:45.420Z,71.76
2023-03-13T18:46:15.578Z,73.09
2023-03-13T18:48:43.512Z,72.64
2023-03-13T18:51:13.825Z,75.03
2023-03-13T18:53:41.840Z,74.59
2023-03-13T18:56:22.218Z,74.43
2023-03-13T18:58:50.806Z,74.33
2023-03-13T19:01:20.012Z,73.91
2023-03-13T19:03:48.159Z,76.49
2023-03-13T19:06:21.226Z,74.87
2023-03-13T19:08:49.512Z,74.43
2023-03-13T19:11:18.068Z,72.99
2023-03-13T19:13:47.366Z,71.54
2023-03-13T19:16:16.896Z,70.68
2023-03-13T19:18:45.010Z,72.77
2023-03-13T19:21:17.869Z,75.22
2023-03-13T19:23:45.906Z,72.82
2023-03-13T19:26:18.424Z,75.45
2023-03-13T19:28:47.795Z,72.99
2023-03-13T19:31:17.649Z,71.72
2023-03-13T19:33:47.534Z,72.97
2023-03-13T19:36:15.973Z,74.33
2023-03-13T19:38:44.021Z,74.16
2023-03-13T19:41:12.500Z,73.03
2023-03-13T19:43:40.521Z,71.39
2023-03-13T19:46:21.611Z,69.04
2023-03-13T19:48:49.582Z,69.63
2023-03-13T19:51:17.576Z,71.08
2023-03-13T19:53:45.532Z,69.12
2023-03-13T19:56:17.287Z,68.83
2023-03-13T19:58:45.665Z,69.00
2023-03-13T20:01:17.612Z,68.21
2023-03-13T20:03:47.300Z,68.95
2023-03-13T20:06:17.555Z,70.24
2023-03-13T20:08:45.626Z,72.68
2023-03-13T20:11:13.632Z,71.79
2023-03-13T20:13:41.684Z,71.72
2023-03-13T20:16:10.887Z,73.52
2023-03-13T20:18:38.963Z,72.25
2023-03-13T20:21:08.478Z,72.33
2023-03-13T20:23:36.443Z,73.19
2023-03-13T20:26:06.007Z,74.28
2023-03-13T20:28:33.963Z,74.05
2023-03-13T20:31:02.056Z,74.51
2023-03-13T20:33:30.096Z,73.69
2023-03-13T20:35:58.617Z,71.45
2023-03-13T20:38:27.888Z,70.96
2023-03-13T20:40:56.512Z,70.60
2023-03-13T20:43:24.500Z,71.33
2023-03-13T20:45:52.473Z,72.43
2023-03-13T20:48:20.713Z,74.27
2023-03-13T20:50:51.278Z,73.12
2023-03-13T20:53:19.297Z,74.96
2023-03-13T20:55:48.585Z,72.77
2023-03-13T20:58:16.581Z,73.79
2023-03-13T21:00:44.905Z,73.04
2023-03-13T21:03:14.199Z,71.79
2023-03-13T21:05:42.198Z,72.00
2023-03-13T21:08:10.221Z,72.34
2023-03-13T21:10:38.174Z,72.13
2023-03-13T21:13:07.749Z,71.80
2023-03-13T21:15:35.748Z,72.06
2023-03-13T21:18:03.717Z,72.00
2023-03-13T21:20:31.910Z,71.85
2023-03-13T21:22:59.847Z,69.50
2023-03-13T21:25:27.805Z,70.17
2023-03-13T21:27:55.766Z,70.07
2023-03-13T21:30:25.109Z,69.19
2023-03-13T21:32:54.384Z,70.52
2023-03-13T21:35:22.404Z,70.25
2023-03-13T21:37:50.399Z,69.37
2023-03-13T21:40:18.726Z,69.26
2023-03-13T21:42:46.768Z,68.81
2023-03-13T21:45:14.706Z,69.34
2023-03-13T21:47:44.000Z,68.65
2023-03-13T21:50:13.388Z,66.60
2023-03-13T21:52:42.421Z,68.83
2023-03-13T21:55:12.068Z,69.63
2023-03-13T21:57:40.853Z,71.49
2023-03-13T22:00:10.294Z,72.11
2023-03-13T22:02:38.379Z,75.23
2023-03-13T22:05:09.184Z,75.87
2023-03-13T22:07:37.238Z,78.08
2023-03-13T22:10:05.731Z,80.04
2023-03-13T22:12:33.711Z,80.97
2023-03-13T22:15:01.709Z,80.95
2023-03-13T22:17:29.653Z,81.56
2023-03-13T22:19:57.631Z,82.96
2023-03-13T22:22:27.020Z,84.00
2023-03-13T22:24:55.271Z,85.25
2023-03-13T22:27:25.498Z,86.89
2023-03-13T22:29:53.412Z,88.21
2023-03-13T22:32:21.434Z,88.97
2023-03-13T22:34:49.463Z,92.55
2023-03-13T22:37:19.659Z,91.50
2023-03-13T22:39:49.941Z,90.49
2023-03-13T22:42:17.842Z,90.47
2023-03-13T22:44:45.836Z,91.98
2023-03-13T22:47:13.753Z,91.84
2023-03-13T22:49:41.735Z,91.49
2023-03-13T22:52:09.661Z,93.20
2023-03-13T22:54:37.543Z,92.96
2023-03-13T22:57:07.125Z,93.35
2023-03-13T22:59:35.514Z,92.70
2023-03-13T23:02:03.547Z,92.14
2023-03-13T23:04:31.456Z,92.02
2023-03-13T23:06:59.399Z,92.64
2023-03-13T23:09:27.329Z,92.30
2023-03-13T23:11:55.303Z,93.10
2023-03-13T23:14:28.968Z,92.29
2023-03-13T23:16:57.064Z,93.25
2023-03-13T23:19:25.163Z,93.67
2023-03-13T23:21:53.099Z,94.31
2023-03-13T23:24:21.074Z,93.23
2023-03-13T23:26:48.980Z,94.45
2023-03-13T23:29:17.007Z,95.31
2023-03-13T23:31:46.344Z,95.35
2023-03-13T23:34:14.532Z,95.35
2023-03-13T23:36:42.490Z,97.18
2023-03-13T23:39:10.432Z,99.15
2023-03-13T23:41:38.417Z,99.46
2023-03-13T23:44:06.580Z,100.00
2023-03-13T23:46:34.528Z,100.00
2023-03-13T23:49:03.896Z,100.00
2023-03-13T23:51:31.842Z,100.00
2023-03-13T23:53:59.892Z,100.00
2023-03-13T23:56:29.586Z,100.00
2023-03-13T23:58:57.503Z,100.00
